Thunder radar more information blitzortung!


Radar de pluja more information rain snow radar


Visita la nostra xarxa de llocs de meteo:

Template documentation
and downloads

And another site



No particular awareness of the weather is required.    There are no Weather-warnings

Pagina Historial Weather Underground text

Diari Resum May 25, 2017 Unitats:  Tant    Imperial   Mètric
« Previous Dia
SegĂźent Dia »
Diari Setmana Mensual Anual Personalitzada
  Maxima: Minima: Media:
Temperatura: 93.2 °F /  34.0 °C 61.5 °F /  16.4 °C 79.3 °F /  26.3 °C
Punt de rosada: 56.1 °F /  13.4 °C 40.6 °F /  4.8 °C 47.5 °F /  8.6 °C
Humitat: 62 % 22 % 35 %
Wind Speed: 15.4 mph /  24.8 km/h - 4.2 mph /  6.8 km/h
RĂ fegues de vent: 15.4 mph /  24.8 km/h - -
Vent:- - SW
Pression baro: 30 in /  1016.8 hPa 29.8 in /  1010.0 hPa -
Precipitacions: 0 in /  0.0 mm    
Historical Graphs
 
 
Dades de taula per May 25, 2017
Temps Temperatura Punt de rosada Pression baro Vent Wind Speed RĂ fegues de vent Humitat Rainfall Rate (Hourly)
00:00 70.2 °F /  21.2 °C 44.1 °F /  6.7 °C 30 in /  1016.8 hPa WSW 2.9 mph /  4.7 km/h 2.9 mph /  4.7 km/h 39 % 0 in /  0.0 mm
00:05 70 °F /  21.1 °C 44.4 °F /  6.9 °C 30 in /  1016.8 hPa SW 2.3 mph /  3.7 km/h 2.3 mph /  3.7 km/h 40 % 0 in /  0.0 mm
00:15 62.6 °F /  17.0 °C 45.7 °F /  7.6 °C 30 in /  1014.8 hPa WSW 1 mph /  1.6 km/h 2 mph /  3.2 km/h 54 % 0 in /  0.0 mm
00:25 63 °F /  17.2 °C 46 °F /  7.8 °C 29.9 in /  1013.8 hPa Calm   3 mph /  4.8 km/h 54 % 0 in /  0.0 mm
00:35 62.4 °F /  16.9 °C 46.6 °F /  8.1 °C 29.9 in /  1013.8 hPa Calm   2 mph /  3.2 km/h 56 % 0 in /  0.0 mm
00:45 62.6 °F /  17.0 °C 46.2 °F /  7.9 °C 30 in /  1014.8 hPa Calm   1 mph /  1.6 km/h 55 % 0 in /  0.0 mm
00:55 62.6 °F /  17.0 °C 46.2 °F /  7.9 °C 30 in /  1014.8 hPa Calm   1 mph /  1.6 km/h 55 % 0 in /  0.0 mm
01:05 62.6 °F /  17.0 °C 46.2 °F /  7.9 °C 30 in /  1014.8 hPa Calm     55 % 0 in /  0.0 mm
01:15 62.8 °F /  17.1 °C 46.4 °F /  8.0 °C 29.9 in /  1013.8 hPa West 1 mph /  1.6 km/h 2 mph /  3.2 km/h 55 % 0 in /  0.0 mm
01:25 62.6 °F /  17.0 °C 46.2 °F /  7.9 °C 29.9 in /  1013.8 hPa WSW 2 mph /  3.2 km/h 2 mph /  3.2 km/h 55 % 0 in /  0.0 mm
01:35 61.7 °F /  16.5 °C 45.9 °F /  7.7 °C 29.9 in /  1013.8 hPa SW 1 mph /  1.6 km/h 2 mph /  3.2 km/h 56 % 0 in /  0.0 mm
01:45 61.7 °F /  16.5 °C 46.8 °F /  8.2 °C 29.9 in /  1013.8 hPa SW 1 mph /  1.6 km/h 1 mph /  1.6 km/h 58 % 0 in /  0.0 mm
01:55 62.2 °F /  16.8 °C 47.3 °F /  8.5 °C 29.9 in /  1013.8 hPa Calm   1 mph /  1.6 km/h 58 % 0 in /  0.0 mm
02:05 61.9 °F /  16.6 °C 46.9 °F /  8.3 °C 29.9 in /  1013.8 hPa SSE 1 mph /  1.6 km/h 1 mph /  1.6 km/h 58 % 0 in /  0.0 mm
02:15 62.1 °F /  16.7 °C 47.1 °F /  8.4 °C 30 in /  1014.8 hPa SSW 1 mph /  1.6 km/h 1 mph /  1.6 km/h 58 % 0 in /  0.0 mm
02:25 62.8 °F /  17.1 °C 47.8 °F /  8.8 °C 29.9 in /  1013.8 hPa Calm   1 mph /  1.6 km/h 58 % 0 in /  0.0 mm
02:35 64.4 °F /  18.0 °C 48.7 °F /  9.3 °C 29.9 in /  1013.8 hPa Calm     57 % 0 in /  0.0 mm
02:45 65.7 °F /  18.7 °C 50 °F /  10.0 °C 29.9 in /  1013.8 hPa Calm   1 mph /  1.6 km/h 57 % 0 in /  0.0 mm
02:55 65.3 °F /  18.5 °C 49.3 °F /  9.6 °C 30 in /  1014.8 hPa Calm   1 mph /  1.6 km/h 56 % 0 in /  0.0 mm
03:05 64.8 °F /  18.2 °C 48.7 °F /  9.3 °C 30 in /  1014.8 hPa SW 1 mph /  1.6 km/h 2 mph /  3.2 km/h 56 % 0 in /  0.0 mm
03:15 67.1 °F /  19.5 °C 49.8 °F /  9.9 °C 30 in /  1014.8 hPa South 1 mph /  1.6 km/h 2 mph /  3.2 km/h 54 % 0 in /  0.0 mm
03:25 68.4 °F /  20.2 °C 50.5 °F /  10.3 °C 30 in /  1014.8 hPa ENE 2 mph /  3.2 km/h 2 mph /  3.2 km/h 53 % 0 in /  0.0 mm
03:35 68.7 °F /  20.4 °C 50.9 °F /  10.5 °C 30 in /  1014.8 hPa ENE 3 mph /  4.8 km/h 3 mph /  4.8 km/h 53 % 0 in /  0.0 mm
03:45 69.8 °F /  21.0 °C 51.4 °F /  10.8 °C 29.9 in /  1013.8 hPa Calm   1 mph /  1.6 km/h 52 % 0 in /  0.0 mm
03:55 71.1 °F /  21.7 °C 52 °F /  11.1 °C 30 in /  1014.8 hPa SSE 1 mph /  1.6 km/h 1 mph /  1.6 km/h 51 % 0 in /  0.0 mm
04:05 73 °F /  22.8 °C 53.2 °F /  11.8 °C 30 in /  1014.8 hPa Calm   2 mph /  3.2 km/h 50 % 0 in /  0.0 mm
04:15 72 °F /  22.2 °C 52.3 °F /  11.3 °C 30 in /  1014.8 hPa SSW 1 mph /  1.6 km/h 2 mph /  3.2 km/h 50 % 0 in /  0.0 mm
04:25 72.7 °F /  22.6 °C 52.3 °F /  11.3 °C 30 in /  1014.8 hPa SW 2 mph /  3.2 km/h 2 mph /  3.2 km/h 49 % 0 in /  0.0 mm
04:35 74.3 °F /  23.5 °C 53.2 °F /  11.8 °C 30 in /  1014.8 hPa WSW 1 mph /  1.6 km/h 2 mph /  3.2 km/h 48 % 0 in /  0.0 mm
04:45 75.6 °F /  24.2 °C 54.5 °F /  12.5 °C 30 in /  1014.8 hPa WSW 1 mph /  1.6 km/h 3 mph /  4.8 km/h 48 % 0 in /  0.0 mm
04:55 75.9 °F /  24.4 °C 54.1 °F /  12.3 °C 30 in /  1014.8 hPa SW 2 mph /  3.2 km/h 3 mph /  4.8 km/h 47 % 0 in /  0.0 mm
05:05 76.8 °F /  24.9 °C 54.5 °F /  12.5 °C 30 in /  1014.8 hPa SW 1 mph /  1.6 km/h 3 mph /  4.8 km/h 46 % 0 in /  0.0 mm
05:15 78.3 °F /  25.7 °C 54.7 °F /  12.6 °C 30 in /  1014.8 hPa SSW 1 mph /  1.6 km/h 3 mph /  4.8 km/h 44 % 0 in /  0.0 mm
05:25 79.5 °F /  26.4 °C 55.8 °F /  13.2 °C 29.9 in /  1013.8 hPa SSW 1 mph /  1.6 km/h 2 mph /  3.2 km/h 44 % 0 in /  0.0 mm
05:35 80.6 °F /  27.0 °C 55.4 °F /  13.0 °C 29.9 in /  1013.8 hPa SSW 1 mph /  1.6 km/h 3 mph /  4.8 km/h 42 % 0 in /  0.0 mm
05:45 82 °F /  27.8 °C 55.9 °F /  13.3 °C 29.9 in /  1013.8 hPa South 1 mph /  1.6 km/h 3 mph /  4.8 km/h 41 % 0 in /  0.0 mm
05:50 81.9 °F /  27.7 °C 55.9 °F /  13.3 °C 29.9 in /  1013.8 hPa South 1 mph /  1.6 km/h 2 mph /  3.2 km/h 41 % 0 in /  0.0 mm
10:50 81.9 °F /  27.7 °C 55.9 °F /  13.3 °C 29.9 in /  1013.8 hPa NE 1.2 mph /  1.9 km/h 1.4 mph /  2.3 km/h 41 % 0 in /  0.0 mm
10:55 82 °F /  27.8 °C 55.2 °F /  12.9 °C 29.9 in /  1013.8 hPa West 3.8 mph /  6.1 km/h 3.8 mph /  6.1 km/h 40 % 0 in /  0.0 mm
11:00 81.3 °F /  27.4 °C 54 °F /  12.2 °C 29.9 in /  1013.8 hPa NNE 3.5 mph /  5.6 km/h 3.5 mph /  5.6 km/h 39 % 0 in /  0.0 mm
11:05 82.4 °F /  28.0 °C 55.8 °F /  13.2 °C 29.9 in /  1013.8 hPa West 5.6 mph /  9.0 km/h 5.6 mph /  9.0 km/h 40 % 0 in /  0.0 mm
11:10 82.4 °F /  28.0 °C 55 °F /  12.8 °C 29.9 in /  1013.8 hPa WSW 2.3 mph /  3.7 km/h 2.3 mph /  3.7 km/h 39 % 0 in /  0.0 mm
11:15 83.7 °F /  28.7 °C 56.1 °F /  13.4 °C 29.9 in /  1013.8 hPa SW 3.5 mph /  5.6 km/h 3.5 mph /  5.6 km/h 39 % 0 in /  0.0 mm
11:20 85.3 °F /  29.6 °C 56.1 °F /  13.4 °C 29.9 in /  1013.8 hPa SSW 3.5 mph /  5.6 km/h 3.5 mph /  5.6 km/h 37 % 0 in /  0.0 mm
11:25 85.5 °F /  29.7 °C 55.6 °F /  13.1 °C 29.9 in /  1013.8 hPa SSE 2.3 mph /  3.7 km/h 2.3 mph /  3.7 km/h 36 % 0 in /  0.0 mm
11:30 86 °F /  30.0 °C 55.2 °F /  12.9 °C 29.9 in /  1013.8 hPa SW 3.6 mph /  5.8 km/h 3.6 mph /  5.8 km/h 35 % 0 in /  0.0 mm
11:35 86.7 °F /  30.4 °C 53.2 °F /  11.8 °C 29.9 in /  1013.8 hPa SE 2.3 mph /  3.7 km/h 2.3 mph /  3.7 km/h 32 % 0 in /  0.0 mm
11:40 87.1 °F /  30.6 °C 54.5 °F /  12.5 °C 29.9 in /  1013.8 hPa SSW 4.6 mph /  7.4 km/h 4.6 mph /  7.4 km/h 33 % 0 in /  0.0 mm
11:41 87.1 °F /  30.6 °C 53.6 °F /  12.0 °C 29.9 in /  1013.8 hPa SSE 2.4 mph /  3.9 km/h 2.4 mph /  3.9 km/h 32 % 0 in /  0.0 mm
11:46 86.9 °F /  30.5 °C 53.4 °F /  11.9 °C 29.9 in /  1013.8 hPa West 5.9 mph /  9.5 km/h 5.9 mph /  9.5 km/h 32 % 0 in /  0.0 mm
11:51 87.1 °F /  30.6 °C 52.9 °F /  11.6 °C 29.9 in /  1013.8 hPa South 2.6 mph /  4.2 km/h 2.6 mph /  4.2 km/h 31 % 0 in /  0.0 mm
11:56 87.8 °F /  31.0 °C 52.5 °F /  11.4 °C 29.9 in /  1013.8 hPa SSW 6.9 mph /  11.1 km/h 6.9 mph /  11.1 km/h 30 % 0 in /  0.0 mm
12:01 88.3 °F /  31.3 °C 54 °F /  12.2 °C 29.9 in /  1013.8 hPa SSW 4.6 mph /  7.4 km/h 4.6 mph /  7.4 km/h 31 % 0 in /  0.0 mm
12:06 87.8 °F /  31.0 °C 51.6 °F /  10.9 °C 29.9 in /  1013.8 hPa SSW 4.6 mph /  7.4 km/h 4.6 mph /  7.4 km/h 29 % 0 in /  0.0 mm
12:11 88 °F /  31.1 °C 50.7 °F /  10.4 °C 29.9 in /  1013.8 hPa East 4.6 mph /  7.4 km/h 4.6 mph /  7.4 km/h 28 % 0 in /  0.0 mm
12:16 87.8 °F /  31.0 °C 50.5 °F /  10.3 °C 29.9 in /  1013.8 hPa SSW 6.9 mph /  11.1 km/h 6.9 mph /  11.1 km/h 28 % 0 in /  0.0 mm
12:21 88.5 °F /  31.4 °C 52.2 °F /  11.2 °C 29.9 in /  1013.8 hPa SSW 3.5 mph /  5.6 km/h 3.5 mph /  5.6 km/h 29 % 0 in /  0.0 mm
12:26 89.8 °F /  32.1 °C 52.3 °F /  11.3 °C 29.9 in /  1013.8 hPa NW 2.3 mph /  3.7 km/h 2.3 mph /  3.7 km/h 28 % 0 in /  0.0 mm
12:31 90 °F /  32.2 °C 52.5 °F /  11.4 °C 29.9 in /  1013.8 hPa South 5.8 mph /  9.3 km/h 5.8 mph /  9.3 km/h 28 % 0 in /  0.0 mm
12:36 90.5 °F /  32.5 °C 52.9 °F /  11.6 °C 30 in /  1014.8 hPa SSW 6.9 mph /  11.1 km/h 6.9 mph /  11.1 km/h 28 % 0 in /  0.0 mm
12:41 89.8 °F /  32.1 °C 51.3 °F /  10.7 °C 30 in /  1014.8 hPa WSW 3.5 mph /  5.6 km/h 3.5 mph /  5.6 km/h 27 % 0 in /  0.0 mm
12:46 89.2 °F /  31.8 °C 50.9 °F /  10.5 °C 30 in /  1014.8 hPa SSE 2.3 mph /  3.7 km/h 2.3 mph /  3.7 km/h 27 % 0 in /  0.0 mm
12:51 90.5 °F /  32.5 °C 52 °F /  11.1 °C 29.9 in /  1013.8 hPa SSW 5.8 mph /  9.3 km/h 5.8 mph /  9.3 km/h 27 % 0 in /  0.0 mm
12:56 90.9 °F /  32.7 °C 52.3 °F /  11.3 °C 29.9 in /  1013.8 hPa NNE 3.3 mph /  5.3 km/h 3.3 mph /  5.3 km/h 27 % 0 in /  0.0 mm
13:01 91.2 °F /  32.9 °C 52.5 °F /  11.4 °C 29.9 in /  1013.8 hPa WSW 3.5 mph /  5.6 km/h 3.5 mph /  5.6 km/h 27 % 0 in /  0.0 mm
13:06 90.5 °F /  32.5 °C 50.9 °F /  10.5 °C 29.9 in /  1013.8 hPa SE 2.3 mph /  3.7 km/h 2.3 mph /  3.7 km/h 26 % 0 in /  0.0 mm
13:11 90.9 °F /  32.7 °C 51.3 °F /  10.7 °C 29.9 in /  1013.8 hPa SSW 2.3 mph /  3.7 km/h 2.3 mph /  3.7 km/h 26 % 0 in /  0.0 mm
13:16 91.4 °F /  33.0 °C 51.6 °F /  10.9 °C 29.9 in /  1013.8 hPa SW 6.9 mph /  11.1 km/h 6.9 mph /  11.1 km/h 26 % 0 in /  0.0 mm
13:21 91.6 °F /  33.1 °C 51.8 °F /  11.0 °C 29.9 in /  1012.8 hPa South 5.8 mph /  9.3 km/h 5.8 mph /  9.3 km/h 26 % 0 in /  0.0 mm
13:26 91.9 °F /  33.3 °C 51.1 °F /  10.6 °C 29.9 in /  1012.8 hPa SW 3.1 mph /  5.0 km/h 3.1 mph /  5.0 km/h 25 % 0 in /  0.0 mm
13:31 93.2 °F /  34.0 °C 53.2 °F /  11.8 °C 29.9 in /  1012.8 hPa SE 3.5 mph /  5.6 km/h 3.5 mph /  5.6 km/h 26 % 0 in /  0.0 mm
13:36 92.3 °F /  33.5 °C 52.5 °F /  11.4 °C 29.9 in /  1012.8 hPa West 5.8 mph /  9.3 km/h 5.8 mph /  9.3 km/h 26 % 0 in /  0.0 mm
13:41 92.1 °F /  33.4 °C 51.3 °F /  10.7 °C 29.9 in /  1012.8 hPa SSW 6.9 mph /  11.1 km/h 6.9 mph /  11.1 km/h 25 % 0 in /  0.0 mm
13:46 92.3 °F /  33.5 °C 51.4 °F /  10.8 °C 29.9 in /  1012.8 hPa SW 5.8 mph /  9.3 km/h 5.8 mph /  9.3 km/h 25 % 0 in /  0.0 mm
13:51 92.5 °F /  33.6 °C 51.4 °F /  10.8 °C 29.9 in /  1012.8 hPa SW 4.9 mph /  7.9 km/h 4.9 mph /  7.9 km/h 25 % 0 in /  0.0 mm
13:56 92.1 °F /  33.4 °C 50.2 °F /  10.1 °C 29.9 in /  1012.8 hPa South 6.9 mph /  11.1 km/h 6.9 mph /  11.1 km/h 24 % 0 in /  0.0 mm
14:02 91.8 °F /  33.2 °C 49.8 °F /  9.9 °C 29.9 in /  1012.8 hPa SSW 5.8 mph /  9.3 km/h 5.9 mph /  9.5 km/h 24 % 0 in /  0.0 mm
14:07 92.3 °F /  33.5 °C 50.4 °F /  10.2 °C 29.9 in /  1011.7 hPa WSW 4.3 mph /  6.9 km/h 4.3 mph /  6.9 km/h 24 % 0 in /  0.0 mm
14:12 91.6 °F /  33.1 °C 48.6 °F /  9.2 °C 29.9 in /  1011.7 hPa SW 6.9 mph /  11.1 km/h 6.9 mph /  11.1 km/h 23 % 0 in /  0.0 mm
14:17 91.6 °F /  33.1 °C 48.6 °F /  9.2 °C 29.9 in /  1011.7 hPa WSW 9.2 mph /  14.8 km/h 9.2 mph /  14.8 km/h 23 % 0 in /  0.0 mm
14:22 91.6 °F /  33.1 °C 48.6 °F /  9.2 °C 29.9 in /  1011.7 hPa SW 5.8 mph /  9.3 km/h 5.8 mph /  9.3 km/h 23 % 0 in /  0.0 mm
14:27 92.3 °F /  33.5 °C 49.1 °F /  9.5 °C 29.9 in /  1011.7 hPa SW 9 mph /  14.5 km/h 9 mph /  14.5 km/h 23 % 0 in /  0.0 mm
14:32 91.9 °F /  33.3 °C 48.7 °F /  9.3 °C 29.9 in /  1011.7 hPa SW 9.2 mph /  14.8 km/h 9.2 mph /  14.8 km/h 23 % 0 in /  0.0 mm
14:37 91 °F /  32.8 °C 46.9 °F /  8.3 °C 29.9 in /  1011.7 hPa SSW 9.2 mph /  14.8 km/h 9.2 mph /  14.8 km/h 22 % 0 in /  0.0 mm
14:42 90.9 °F /  32.7 °C 46.8 °F /  8.2 °C 29.9 in /  1011.7 hPa SW 10.4 mph /  16.7 km/h 10.4 mph /  16.7 km/h 22 % 0 in /  0.0 mm
14:47 91.6 °F /  33.1 °C 47.5 °F /  8.6 °C 29.9 in /  1011.7 hPa SW 2.3 mph /  3.7 km/h 3.6 mph /  5.8 km/h 22 % 0 in /  0.0 mm
14:52 91.8 °F /  33.2 °C 47.5 °F /  8.6 °C 29.9 in /  1011.7 hPa SSE 7.1 mph /  11.4 km/h 7.1 mph /  11.4 km/h 22 % 0 in /  0.0 mm
14:57 91.4 °F /  33.0 °C 47.1 °F /  8.4 °C 29.9 in /  1011.7 hPa SSE 6.9 mph /  11.1 km/h 6.9 mph /  11.1 km/h 22 % 0 in /  0.0 mm
15:02 91.6 °F /  33.1 °C 47.5 °F /  8.6 °C 29.9 in /  1011.7 hPa SW 5.8 mph /  9.3 km/h 5.8 mph /  9.3 km/h 22 % 0 in /  0.0 mm
15:07 91 °F /  32.8 °C 46.9 °F /  8.3 °C 29.9 in /  1011.7 hPa SW 5.8 mph /  9.3 km/h 5.8 mph /  9.3 km/h 22 % 0 in /  0.0 mm
15:12 90.9 °F /  32.7 °C 47.8 °F /  8.8 °C 29.9 in /  1011.7 hPa SSW 10.4 mph /  16.7 km/h 10.4 mph /  16.7 km/h 23 % 0 in /  0.0 mm
15:17 90.7 °F /  32.6 °C 47.8 °F /  8.8 °C 29.9 in /  1011.7 hPa SW 5.8 mph /  9.3 km/h 5.8 mph /  9.3 km/h 23 % 0 in /  0.0 mm
15:22 90.5 °F /  32.5 °C 47.7 °F /  8.7 °C 29.9 in /  1011.7 hPa WNW 5.8 mph /  9.3 km/h 5.8 mph /  9.3 km/h 23 % 0 in /  0.0 mm
15:27 89.1 °F /  31.7 °C 46.4 °F /  8.0 °C 29.9 in /  1011.7 hPa SW 10.4 mph /  16.7 km/h 10.4 mph /  16.7 km/h 23 % 0 in /  0.0 mm
15:32 89.2 °F /  31.8 °C 47.7 °F /  8.7 °C 29.9 in /  1011.7 hPa SW 10.4 mph /  16.7 km/h 10.4 mph /  16.7 km/h 24 % 0 in /  0.0 mm
15:37 90.1 °F /  32.3 °C 47.3 °F /  8.5 °C 29.9 in /  1011.7 hPa SSW 5.8 mph /  9.3 km/h 5.8 mph /  9.3 km/h 23 % 0 in /  0.0 mm
15:42 89.4 °F /  31.9 °C 47.8 °F /  8.8 °C 29.9 in /  1011.7 hPa SSE 6.9 mph /  11.1 km/h 6.9 mph /  11.1 km/h 24 % 0 in /  0.0 mm
15:47 89.1 °F /  31.7 °C 47.7 °F /  8.7 °C 29.9 in /  1011.7 hPa SW 12.7 mph /  20.4 km/h 12.7 mph /  20.4 km/h 24 % 0 in /  0.0 mm
15:52 88.5 °F /  31.4 °C 47.1 °F /  8.4 °C 29.9 in /  1011.7 hPa SW 15 mph /  24.1 km/h 15 mph /  24.1 km/h 24 % 0 in /  0.0 mm
15:57 88.9 °F /  31.6 °C 47.5 °F /  8.6 °C 29.9 in /  1011.7 hPa SSW 4.6 mph /  7.4 km/h 4.6 mph /  7.4 km/h 24 % 0 in /  0.0 mm
16:02 89.2 °F /  31.8 °C 47.7 °F /  8.7 °C 29.9 in /  1011.7 hPa SW 9.2 mph /  14.8 km/h 9.2 mph /  14.8 km/h 24 % 0 in /  0.0 mm
16:07 88.7 °F /  31.5 °C 47.3 °F /  8.5 °C 29.9 in /  1011.7 hPa SW 6.9 mph /  11.1 km/h 6.9 mph /  11.1 km/h 24 % 0 in /  0.0 mm
16:12 88.9 °F /  31.6 °C 47.5 °F /  8.6 °C 29.9 in /  1011.7 hPa SSW 8.1 mph /  13.0 km/h 8.1 mph /  13.0 km/h 24 % 0 in /  0.0 mm
16:17 88.7 °F /  31.5 °C 47.3 °F /  8.5 °C 29.9 in /  1011.7 hPa SW 11.5 mph /  18.5 km/h 11.5 mph /  18.5 km/h 24 % 0 in /  0.0 mm
16:22 88.5 °F /  31.4 °C 47.1 °F /  8.4 °C 29.8 in /  1010.7 hPa SSW 10.4 mph /  16.7 km/h 10.4 mph /  16.7 km/h 24 % 0 in /  0.0 mm
16:27 88.7 °F /  31.5 °C 47.3 °F /  8.5 °C 29.8 in /  1010.7 hPa South 6.9 mph /  11.1 km/h 6.9 mph /  11.1 km/h 24 % 0 in /  0.0 mm
16:32 88 °F /  31.1 °C 46.8 °F /  8.2 °C 29.8 in /  1010.7 hPa SW 11.5 mph /  18.5 km/h 11.5 mph /  18.5 km/h 24 % 0 in /  0.0 mm
16:37 88.5 °F /  31.4 °C 48.2 °F /  9.0 °C 29.8 in /  1010.7 hPa SW 6.4 mph /  10.3 km/h 6.4 mph /  10.3 km/h 25 % 0 in /  0.0 mm
16:42 89.1 °F /  31.7 °C 48.7 °F /  9.3 °C 29.8 in /  1010.7 hPa SW 6.9 mph /  11.1 km/h 6.9 mph /  11.1 km/h 25 % 0 in /  0.0 mm
16:47 88.5 °F /  31.4 °C 48.2 °F /  9.0 °C 29.8 in /  1010.7 hPa SW 11.5 mph /  18.5 km/h 11.5 mph /  18.5 km/h 25 % 0 in /  0.0 mm
16:52 88.2 °F /  31.2 °C 47.8 °F /  8.8 °C 29.8 in /  1010.7 hPa South 8.5 mph /  13.7 km/h 8.5 mph /  13.7 km/h 25 % 0 in /  0.0 mm
16:57 88 °F /  31.1 °C 47.7 °F /  8.7 °C 29.8 in /  1010.7 hPa SW 8.1 mph /  13.0 km/h 8.1 mph /  13.0 km/h 25 % 0 in /  0.0 mm
17:02 87.4 °F /  30.8 °C 47.3 °F /  8.5 °C 29.8 in /  1010.7 hPa West 9.2 mph /  14.8 km/h 9.2 mph /  14.8 km/h 25 % 0 in /  0.0 mm
17:07 87.8 °F /  31.0 °C 47.7 °F /  8.7 °C 29.8 in /  1010.7 hPa SW 10.4 mph /  16.7 km/h 10.4 mph /  16.7 km/h 25 % 0 in /  0.0 mm
17:12 87.6 °F /  30.9 °C 47.5 °F /  8.6 °C 29.8 in /  1010.7 hPa SW 7.1 mph /  11.4 km/h 7.1 mph /  11.4 km/h 25 % 0 in /  0.0 mm
17:17 86.9 °F /  30.5 °C 46.8 °F /  8.2 °C 29.8 in /  1010.7 hPa SW 10.4 mph /  16.7 km/h 10.4 mph /  16.7 km/h 25 % 0 in /  0.0 mm
17:22 87.8 °F /  31.0 °C 47.7 °F /  8.7 °C 29.8 in /  1010.7 hPa West 7.1 mph /  11.4 km/h 7.1 mph /  11.4 km/h 25 % 0 in /  0.0 mm
17:27 88 °F /  31.1 °C 47.7 °F /  8.7 °C 29.8 in /  1010.7 hPa SSE 8.5 mph /  13.7 km/h 8.5 mph /  13.7 km/h 25 % 0 in /  0.0 mm
17:32 87.6 °F /  30.9 °C 48.6 °F /  9.2 °C 29.8 in /  1010.7 hPa SW 10.7 mph /  17.2 km/h 10.7 mph /  17.2 km/h 26 % 0 in /  0.0 mm
17:37 87.4 °F /  30.8 °C 48.4 °F /  9.1 °C 29.8 in /  1010.7 hPa WSW 8.5 mph /  13.7 km/h 8.5 mph /  13.7 km/h 26 % 0 in /  0.0 mm
17:42 86.7 °F /  30.4 °C 46.8 °F /  8.2 °C 29.8 in /  1010.7 hPa SW 10.4 mph /  16.7 km/h 10.4 mph /  16.7 km/h 25 % 0 in /  0.0 mm
17:47 86.4 °F /  30.2 °C 46.4 °F /  8.0 °C 29.8 in /  1010.7 hPa SSW 6.9 mph /  11.1 km/h 6.9 mph /  11.1 km/h 25 % 0 in /  0.0 mm
17:52 86.2 °F /  30.1 °C 46.2 °F /  7.9 °C 29.9 in /  1011.7 hPa SSW 9.2 mph /  14.8 km/h 9.2 mph /  14.8 km/h 25 % 0 in /  0.0 mm
17:57 86.2 °F /  30.1 °C 46.2 °F /  7.9 °C 29.9 in /  1011.7 hPa SSW 6.9 mph /  11.1 km/h 6.9 mph /  11.1 km/h 25 % 0 in /  0.0 mm
18:02 86.2 °F /  30.1 °C 46.2 °F /  7.9 °C 29.9 in /  1011.7 hPa South 9.2 mph /  14.8 km/h 9.2 mph /  14.8 km/h 25 % 0 in /  0.0 mm
18:07 85.5 °F /  29.7 °C 45.7 °F /  7.6 °C 29.8 in /  1010.7 hPa West 5.9 mph /  9.5 km/h 5.9 mph /  9.5 km/h 25 % 0 in /  0.0 mm
18:12 85.5 °F /  29.7 °C 45.7 °F /  7.6 °C 29.8 in /  1010.7 hPa NW 8.1 mph /  13.0 km/h 8.1 mph /  13.0 km/h 25 % 0 in /  0.0 mm
18:17 85.3 °F /  29.6 °C 45.5 °F /  7.5 °C 29.8 in /  1010.7 hPa West 9.2 mph /  14.8 km/h 9.2 mph /  14.8 km/h 25 % 0 in /  0.0 mm
18:22 85.1 °F /  29.5 °C 45.3 °F /  7.4 °C 29.8 in /  1010.7 hPa WSW 8.7 mph /  14.0 km/h 8.7 mph /  14.0 km/h 25 % 0 in /  0.0 mm
18:27 84.7 °F /  29.3 °C 45 °F /  7.2 °C 29.8 in /  1010.7 hPa WSW 8.1 mph /  13.0 km/h 8.1 mph /  13.0 km/h 25 % 0 in /  0.0 mm
18:32 84.6 °F /  29.2 °C 45 °F /  7.2 °C 29.8 in /  1010.7 hPa WSW 9.2 mph /  14.8 km/h 9.2 mph /  14.8 km/h 25 % 0 in /  0.0 mm
18:37 84 °F /  28.9 °C 44.4 °F /  6.9 °C 29.8 in /  1010.7 hPa SSW 11.5 mph /  18.5 km/h 11.5 mph /  18.5 km/h 25 % 0 in /  0.0 mm
18:42 84 °F /  28.9 °C 44.4 °F /  6.9 °C 29.8 in /  1010.7 hPa SW 8.1 mph /  13.0 km/h 8.1 mph /  13.0 km/h 25 % 0 in /  0.0 mm
18:47 83.7 °F /  28.7 °C 44.1 °F /  6.7 °C 29.8 in /  1010.7 hPa SW 9.7 mph /  15.6 km/h 9.7 mph /  15.6 km/h 25 % 0 in /  0.0 mm
18:52 83.7 °F /  28.7 °C 44.1 °F /  6.7 °C 29.8 in /  1010.0 hPa WSW 10.4 mph /  16.7 km/h 10.4 mph /  16.7 km/h 25 % 0 in /  0.0 mm
18:57 83.5 °F /  28.6 °C 43.9 °F /  6.6 °C 29.8 in /  1010.0 hPa SSE 15.4 mph /  24.8 km/h 15.4 mph /  24.8 km/h 25 % 0 in /  0.0 mm
19:02 83.1 °F /  28.4 °C 42.6 °F /  5.9 °C 29.8 in /  1010.0 hPa SW 6.9 mph /  11.1 km/h 6.9 mph /  11.1 km/h 24 % 0 in /  0.0 mm
19:07 82.9 °F /  28.3 °C 42.4 °F /  5.8 °C 29.8 in /  1010.0 hPa SW 10.2 mph /  16.4 km/h 10.2 mph /  16.4 km/h 24 % 0 in /  0.0 mm
19:12 82.8 °F /  28.2 °C 42.3 °F /  5.7 °C 29.8 in /  1010.0 hPa West 12.1 mph /  19.5 km/h 12.1 mph /  19.5 km/h 24 % 0 in /  0.0 mm
19:17 82.6 °F /  28.1 °C 42.1 °F /  5.6 °C 29.8 in /  1010.0 hPa SW 12.7 mph /  20.4 km/h 12.7 mph /  20.4 km/h 24 % 0 in /  0.0 mm
19:22 82.4 °F /  28.0 °C 42.1 °F /  5.6 °C 29.8 in /  1010.0 hPa SSW 9.2 mph /  14.8 km/h 9.2 mph /  14.8 km/h 24 % 0 in /  0.0 mm
19:25 70.3 °F /  21.3 °C 46.8 °F /  8.2 °C 29.9 in /  1012.8 hPa WSW 1 mph /  1.6 km/h 2 mph /  3.2 km/h 43 % 0 in /  0.0 mm
19:27 82.4 °F /  28.0 °C 42.1 °F /  5.6 °C 29.8 in /  1010.0 hPa SSW 10.4 mph /  16.7 km/h 10.4 mph /  16.7 km/h 24 % 0 in /  0.0 mm
19:32 82.2 °F /  27.9 °C 43 °F /  6.1 °C 29.8 in /  1010.0 hPa SW 6.9 mph /  11.1 km/h 6.9 mph /  11.1 km/h 25 % 0 in /  0.0 mm
19:35 70.2 °F /  21.2 °C 47.1 °F /  8.4 °C 29.9 in /  1012.8 hPa Calm   2 mph /  3.2 km/h 44 % 0 in /  0.0 mm
19:37 82 °F /  27.8 °C 42.6 °F /  5.9 °C 29.8 in /  1010.0 hPa South 4.6 mph /  7.4 km/h 4.6 mph /  7.4 km/h 25 % 0 in /  0.0 mm
19:42 82 °F /  27.8 °C 42.6 °F /  5.9 °C 29.8 in /  1010.0 hPa SW 4.6 mph /  7.4 km/h 4.6 mph /  7.4 km/h 25 % 0 in /  0.0 mm
19:45 70 °F /  21.1 °C 47.1 °F /  8.4 °C 29.9 in /  1012.8 hPa Calm     44 % 0 in /  0.0 mm
19:47 81.7 °F /  27.6 °C 42.4 °F /  5.8 °C 29.8 in /  1010.0 hPa WSW 5.8 mph /  9.3 km/h 5.8 mph /  9.3 km/h 25 % 0 in /  0.0 mm
19:52 81.5 °F /  27.5 °C 42.3 °F /  5.7 °C 29.8 in /  1010.0 hPa WSW 5.8 mph /  9.3 km/h 5.8 mph /  9.3 km/h 25 % 0 in /  0.0 mm
19:55 69.1 °F /  20.6 °C 47.5 °F /  8.6 °C 29.9 in /  1013.8 hPa WNW 1 mph /  1.6 km/h 1 mph /  1.6 km/h 46 % 0 in /  0.0 mm
19:57 81.3 °F /  27.4 °C 42.1 °F /  5.6 °C 29.8 in /  1010.0 hPa NW 6 mph /  9.7 km/h 6 mph /  9.7 km/h 25 % 0 in /  0.0 mm
20:02 81 °F /  27.2 °C 41.7 °F /  5.4 °C 29.8 in /  1010.0 hPa SW 6.9 mph /  11.1 km/h 6.9 mph /  11.1 km/h 25 % 0 in /  0.0 mm
20:05 68.5 °F /  20.3 °C 47.5 °F /  8.6 °C 29.9 in /  1013.8 hPa ENE 1 mph /  1.6 km/h 2 mph /  3.2 km/h 47 % 0 in /  0.0 mm
20:07 80.8 °F /  27.1 °C 42.6 °F /  5.9 °C 29.8 in /  1010.0 hPa SSW 4.6 mph /  7.4 km/h 4.6 mph /  7.4 km/h 26 % 0 in /  0.0 mm
20:12 80.6 °F /  27.0 °C 42.4 °F /  5.8 °C 29.8 in /  1010.0 hPa South 4.6 mph /  7.4 km/h 4.6 mph /  7.4 km/h 26 % 0 in /  0.0 mm
20:15 68 °F /  20.0 °C 47.7 °F /  8.7 °C 29.9 in /  1013.8 hPa Calm     48 % 0 in /  0.0 mm
20:17 80.4 °F /  26.9 °C 42.4 °F /  5.8 °C 29.8 in /  1010.0 hPa SW 2.3 mph /  3.7 km/h 2.3 mph /  3.7 km/h 26 % 0 in /  0.0 mm
20:22 80.2 °F /  26.8 °C 42.3 °F /  5.7 °C 29.8 in /  1010.0 hPa SSW 5.8 mph /  9.3 km/h 5.8 mph /  9.3 km/h 26 % 0 in /  0.0 mm
20:25 67.5 °F /  19.7 °C 47.7 °F /  8.7 °C 29.9 in /  1013.8 hPa Calm     49 % 0 in /  0.0 mm
20:27 80.1 °F /  26.7 °C 42.1 °F /  5.6 °C 29.8 in /  1010.0 hPa SW 3.5 mph /  5.6 km/h 3.5 mph /  5.6 km/h 26 % 0 in /  0.0 mm
20:32 79.9 °F /  26.6 °C 41.9 °F /  5.5 °C 29.8 in /  1010.0 hPa SW 5.8 mph /  9.3 km/h 5.8 mph /  9.3 km/h 26 % 0 in /  0.0 mm
20:35 67.5 °F /  19.7 °C 47.7 °F /  8.7 °C 29.9 in /  1013.8 hPa Calm   1 mph /  1.6 km/h 49 % 0 in /  0.0 mm
20:37 79.7 °F /  26.5 °C 41.7 °F /  5.4 °C 29.8 in /  1010.0 hPa SW 2.9 mph /  4.7 km/h 2.9 mph /  4.7 km/h 26 % 0 in /  0.0 mm
20:42 79.3 °F /  26.3 °C 41.5 °F /  5.3 °C 29.8 in /  1010.0 hPa SSW 4.6 mph /  7.4 km/h 4.6 mph /  7.4 km/h 26 % 0 in /  0.0 mm
20:45 67.5 °F /  19.7 °C 47.7 °F /  8.7 °C 29.9 in /  1012.8 hPa Calm     49 % 0 in /  0.0 mm
20:47 78.8 °F /  26.0 °C 41 °F /  5.0 °C 29.8 in /  1010.0 hPa SSW 3.5 mph /  5.6 km/h 3.5 mph /  5.6 km/h 26 % 0 in /  0.0 mm
20:50 67.3 °F /  19.6 °C 47.5 °F /  8.6 °C 29.9 in /  1012.8 hPa Calm     49 % 0 in /  0.0 mm
20:52 78.4 °F /  25.8 °C 41.7 °F /  5.4 °C 29.8 in /  1010.0 hPa SW 1.2 mph /  1.9 km/h 1.2 mph /  1.9 km/h 27 % 0 in /  0.0 mm
20:57 78.3 °F /  25.7 °C 41.5 °F /  5.3 °C 29.8 in /  1010.0 hPa SW 2.3 mph /  3.7 km/h 2.3 mph /  3.7 km/h 27 % 0 in /  0.0 mm
20:58 78.1 °F /  25.6 °C 41.4 °F /  5.2 °C 29.8 in /  1010.0 hPa SW 2.6 mph /  4.2 km/h 2.6 mph /  4.2 km/h 27 % 0 in /  0.0 mm
21:00 66.9 °F /  19.4 °C 47.7 °F /  8.7 °C 29.9 in /  1013.8 hPa Calm     50 % 0 in /  0.0 mm
21:03 77.7 °F /  25.4 °C 41.2 °F /  5.1 °C 29.8 in /  1010.0 hPa SSW 2.3 mph /  3.7 km/h 2.3 mph /  3.7 km/h 27 % 0 in /  0.0 mm
21:08 77.4 °F /  25.2 °C 40.8 °F /  4.9 °C 29.8 in /  1010.0 hPa SW 2.3 mph /  3.7 km/h 2.3 mph /  3.7 km/h 27 % 0 in /  0.0 mm
21:10 66.6 °F /  19.2 °C 47.3 °F /  8.5 °C 29.9 in /  1013.8 hPa Calm     50 % 0 in /  0.0 mm
21:13 77.2 °F /  25.1 °C 40.6 °F /  4.8 °C 29.8 in /  1010.0 hPa SW 2.3 mph /  3.7 km/h 2.3 mph /  3.7 km/h 27 % 0 in /  0.0 mm
21:18 76.8 °F /  24.9 °C 41.2 °F /  5.1 °C 29.8 in /  1010.0 hPa WSW 2.4 mph /  3.9 km/h 2.4 mph /  3.9 km/h 28 % 0 in /  0.0 mm
21:23 76.6 °F /  24.8 °C 42.1 °F /  5.6 °C 29.8 in /  1010.0 hPa Calm   0.9 mph /  1.4 km/h 29 % 0 in /  0.0 mm
21:28 76.5 °F /  24.7 °C 41.7 °F /  5.4 °C 29.8 in /  1010.0 hPa West 2.6 mph /  4.2 km/h   29 % 0 in /  0.0 mm
21:30 66.6 °F /  19.2 °C 47.8 °F /  8.8 °C 29.9 in /  1013.8 hPa Calm     51 % 0 in /  0.0 mm
21:33 76.1 °F /  24.5 °C 41.5 °F /  5.3 °C 29.8 in /  1010.0 hPa WSW 2.4 mph /  3.9 km/h 2.4 mph /  3.9 km/h 29 % 0 in /  0.0 mm
21:38 75.9 °F /  24.4 °C 41.4 °F /  5.2 °C 29.8 in /  1010.7 hPa SW 4.6 mph /  7.4 km/h 4.6 mph /  7.4 km/h 29 % 0 in /  0.0 mm
21:40 66.2 °F /  19.0 °C 48 °F /  8.9 °C 29.9 in /  1013.8 hPa Calm     52 % 0 in /  0.0 mm
21:43 75.7 °F /  24.3 °C 41.2 °F /  5.1 °C 29.8 in /  1010.7 hPa SW 2.3 mph /  3.7 km/h 2.3 mph /  3.7 km/h 29 % 0 in /  0.0 mm
21:48 75.6 °F /  24.2 °C 41.2 °F /  5.1 °C 29.8 in /  1010.7 hPa WSW 1.6 mph /  2.6 km/h 1.6 mph /  2.6 km/h 29 % 0 in /  0.0 mm
21:50 66.2 °F /  19.0 °C 48.6 °F /  9.2 °C 29.9 in /  1013.8 hPa Calm     53 % 0 in /  0.0 mm
21:53 75.4 °F /  24.1 °C 40.8 °F /  4.9 °C 29.8 in /  1010.7 hPa SW 1.2 mph /  1.9 km/h 1.2 mph /  1.9 km/h 29 % 0 in /  0.0 mm
21:58 75.4 °F /  24.1 °C 41.7 °F /  5.4 °C 29.8 in /  1010.7 hPa WSW 2.3 mph /  3.7 km/h 2.3 mph /  3.7 km/h 30 % 0 in /  0.0 mm
22:03 75.2 °F /  24.0 °C 41.5 °F /  5.3 °C 29.8 in /  1010.7 hPa West 2.3 mph /  3.7 km/h 2.3 mph /  3.7 km/h 30 % 0 in /  0.0 mm
22:08 74.7 °F /  23.7 °C 41.2 °F /  5.1 °C 29.9 in /  1011.7 hPa WSW 2.3 mph /  3.7 km/h 2.3 mph /  3.7 km/h 30 % 0 in /  0.0 mm
22:10 66.2 °F /  19.0 °C 48.6 °F /  9.2 °C 29.9 in /  1013.8 hPa Calm     53 % 0 in /  0.0 mm
22:13 74.3 °F /  23.5 °C 40.8 °F /  4.9 °C 29.9 in /  1011.7 hPa West 2.9 mph /  4.7 km/h 2.9 mph /  4.7 km/h 30 % 0 in /  0.0 mm
22:18 73.9 °F /  23.3 °C 41.4 °F /  5.2 °C 29.9 in /  1011.7 hPa SW 2.9 mph /  4.7 km/h 2.9 mph /  4.7 km/h 31 % 0 in /  0.0 mm
22:20 65.3 °F /  18.5 °C 48.7 °F /  9.3 °C 29.9 in /  1013.8 hPa Calm   1 mph /  1.6 km/h 55 % 0 in /  0.0 mm
22:23 73.8 °F /  23.2 °C 41.2 °F /  5.1 °C 29.9 in /  1011.7 hPa SW 1.4 mph /  2.3 km/h 1.4 mph /  2.3 km/h 31 % 0 in /  0.0 mm
22:28 73.4 °F /  23.0 °C 41.7 °F /  5.4 °C 29.9 in /  1011.7 hPa SW 2.3 mph /  3.7 km/h 2.3 mph /  3.7 km/h 32 % 0 in /  0.0 mm
22:30 64.2 °F /  17.9 °C 47.7 °F /  8.7 °C 29.9 in /  1013.8 hPa NE 1 mph /  1.6 km/h 2 mph /  3.2 km/h 55 % 0 in /  0.0 mm
22:33 73.2 °F /  22.9 °C 42.4 °F /  5.8 °C 29.9 in /  1011.7 hPa WSW 2.4 mph /  3.9 km/h 2.4 mph /  3.9 km/h 33 % 0 in /  0.0 mm
22:38 73 °F /  22.8 °C 42.3 °F /  5.7 °C 29.9 in /  1011.7 hPa West 3.5 mph /  5.6 km/h 3.5 mph /  5.6 km/h 33 % 0 in /  0.0 mm
22:40 63.7 °F /  17.6 °C 47.7 °F /  8.7 °C 29.9 in /  1013.8 hPa Calm     56 % 0 in /  0.0 mm
22:43 73 °F /  22.8 °C 43 °F /  6.1 °C 29.9 in /  1011.7 hPa West 3.5 mph /  5.6 km/h 3.5 mph /  5.6 km/h 34 % 0 in /  0.0 mm
22:48 73 °F /  22.8 °C 43.9 °F /  6.6 °C 29.9 in /  1011.7 hPa WSW 2.3 mph /  3.7 km/h 2.3 mph /  3.7 km/h 35 % 0 in /  0.0 mm
22:50 62.8 °F /  17.1 °C 47.3 °F /  8.5 °C 29.9 in /  1013.8 hPa Calm   2 mph /  3.2 km/h 57 % 0 in /  0.0 mm
22:53 72.9 °F /  22.7 °C 44.2 °F /  6.8 °C 29.9 in /  1011.7 hPa WSW 2.4 mph /  3.9 km/h 2.4 mph /  3.9 km/h 36 % 0 in /  0.0 mm
22:58 72.7 °F /  22.6 °C 45 °F /  7.2 °C 29.9 in /  1011.7 hPa WSW 2.3 mph /  3.7 km/h 2.3 mph /  3.7 km/h 37 % 0 in /  0.0 mm
23:00 62.6 °F /  17.0 °C 47.7 °F /  8.7 °C 29.9 in /  1013.8 hPa Calm   1 mph /  1.6 km/h 58 % 0 in /  0.0 mm
23:03 72.3 °F /  22.4 °C 44.6 °F /  7.0 °C 29.9 in /  1011.7 hPa West 2.4 mph /  3.9 km/h 2.4 mph /  3.9 km/h 37 % 0 in /  0.0 mm
23:08 72.1 °F /  22.3 °C 45.1 °F /  7.3 °C 29.8 in /  1010.7 hPa West 1.4 mph /  2.3 km/h 1.4 mph /  2.3 km/h 38 % 0 in /  0.0 mm
23:10 62.2 °F /  16.8 °C 48.2 °F /  9.0 °C 29.9 in /  1013.8 hPa Calm     60 % 0 in /  0.0 mm
23:13 72.1 °F /  22.3 °C 45.1 °F /  7.3 °C 29.8 in /  1010.7 hPa WSW 2.4 mph /  3.9 km/h 2.4 mph /  3.9 km/h 38 % 0 in /  0.0 mm
23:18 72 °F /  22.2 °C 45.7 °F /  7.6 °C 29.8 in /  1010.7 hPa SW 2.3 mph /  3.7 km/h 2.3 mph /  3.7 km/h 39 % 0 in /  0.0 mm
23:20 61.9 °F /  16.6 °C 48.4 °F /  9.1 °C 29.9 in /  1013.8 hPa Calm   2 mph /  3.2 km/h 61 % 0 in /  0.0 mm
23:23 71.8 °F /  22.1 °C 45.5 °F /  7.5 °C 29.9 in /  1011.7 hPa SW 2.3 mph /  3.7 km/h 2.3 mph /  3.7 km/h 39 % 0 in /  0.0 mm
23:28 71.6 °F /  22.0 °C 46 °F /  7.8 °C 29.9 in /  1011.7 hPa West 2.3 mph /  3.7 km/h 2.3 mph /  3.7 km/h 40 % 0 in /  0.0 mm
23:30 61.7 °F /  16.5 °C 48 °F /  8.9 °C 30 in /  1014.8 hPa NE 1 mph /  1.6 km/h 2 mph /  3.2 km/h 61 % 0 in /  0.0 mm
23:33 71.6 °F /  22.0 °C 46 °F /  7.8 °C 29.9 in /  1011.7 hPa West 2.3 mph /  3.7 km/h 2.3 mph /  3.7 km/h 40 % 0 in /  0.0 mm
23:38 71.4 °F /  21.9 °C 45.9 °F /  7.7 °C 29.9 in /  1011.7 hPa West 2.3 mph /  3.7 km/h 2.3 mph /  3.7 km/h 40 % 0 in /  0.0 mm
23:40 61.5 °F /  16.4 °C 48.4 °F /  9.1 °C 29.9 in /  1013.8 hPa Calm   2 mph /  3.2 km/h 62 % 0 in /  0.0 mm
23:43 71.4 °F /  21.9 °C 46.6 °F /  8.1 °C 29.9 in /  1011.7 hPa West 1.6 mph /  2.6 km/h 1.6 mph /  2.6 km/h 41 % 0 in /  0.0 mm
23:48 71.2 °F /  21.8 °C 46.2 °F /  7.9 °C 29.9 in /  1011.7 hPa SW 1.2 mph /  1.9 km/h   41 % 0 in /  0.0 mm
23:50 61.5 °F /  16.4 °C 47.8 °F /  8.8 °C 29.9 in /  1013.8 hPa SW 1 mph /  1.6 km/h 2 mph /  3.2 km/h 61 % 0 in /  0.0 mm
23:53 71.2 °F /  21.8 °C 46.2 °F /  7.9 °C 29.9 in /  1011.7 hPa West 2.3 mph /  3.7 km/h 2.3 mph /  3.7 km/h 41 % 0 in /  0.0 mm
23:58 71.1 °F /  21.7 °C 46.8 °F /  8.2 °C 29.9 in /  1011.7 hPa West 1.2 mph /  1.9 km/h   42 % 0 in /  0.0 mm
Meteo Sesrovires
Elogis d' Weather Underground - 3.75 mb

Guio original per  Jim McMurry - jmcmurry@mwt.net Adaptat per a la plantilla per  Wim van der Kuil - Leuven-Template.eu

Trobareu la nostra informacio del temps tambe a:

Weather Underground

AWEKAS